sensor_id;sensor_type;location;lat;lon;timestamp;temperature;humidity
22450;DHT22;11392;57.390;-2.468;2023-08-06T00:01:49;9.90;99.90
22450;DHT22;11392;57.390;-2.468;2023-08-06T00:04:18;9.90;99.90
22450;DHT22;11392;57.390;-2.468;2023-08-06T00:06:46;9.90;99.90
22450;DHT22;11392;57.390;-2.468;2023-08-06T00:09:13;9.80;99.90
22450;DHT22;11392;57.390;-2.468;2023-08-06T00:11:40;9.80;99.90
22450;DHT22;11392;57.390;-2.468;2023-08-06T00:14:08;9.90;99.90
22450;DHT22;11392;57.390;-2.468;2023-08-06T00:16:35;10.00;99.90
22450;DHT22;11392;57.390;-2.468;2023-08-06T00:19:02;10.10;99.90
22450;DHT22;11392;57.390;-2.468;2023-08-06T00:21:29;10.10;99.90
22450;DHT22;11392;57.390;-2.468;2023-08-06T00:23:56;10.20;99.90
22450;DHT22;11392;57.390;-2.468;2023-08-06T00:26:23;10.10;99.90
22450;DHT22;11392;57.390;-2.468;2023-08-06T00:28:51;10.20;99.90
22450;DHT22;11392;57.390;-2.468;2023-08-06T00:31:18;10.20;99.90
22450;DHT22;11392;57.390;-2.468;2023-08-06T00:33:45;10.30;99.90
22450;DHT22;11392;57.390;-2.468;2023-08-06T00:36:12;10.30;99.90
22450;DHT22;11392;57.390;-2.468;2023-08-06T00:38:39;10.30;99.90
22450;DHT22;11392;57.390;-2.468;2023-08-06T00:41:06;10.30;99.90
22450;DHT22;11392;57.390;-2.468;2023-08-06T00:43:33;10.30;99.90
22450;DHT22;11392;57.390;-2.468;2023-08-06T00:46:00;10.30;99.90
22450;DHT22;11392;57.390;-2.468;2023-08-06T00:48:27;10.30;99.90
22450;DHT22;11392;57.390;-2.468;2023-08-06T00:50:54;10.40;99.90
22450;DHT22;11392;57.390;-2.468;2023-08-06T00:53:22;10.40;99.90
22450;DHT22;11392;57.390;-2.468;2023-08-06T00:55:49;10.30;99.90
22450;DHT22;11392;57.390;-2.468;2023-08-06T00:58:16;10.20;99.90
22450;DHT22;11392;57.390;-2.468;2023-08-06T01:00:44;10.20;99.90
22450;DHT22;11392;57.390;-2.468;2023-08-06T01:03:11;10.10;99.90
22450;DHT22;11392;57.390;-2.468;2023-08-06T01:05:38;10.20;99.90
22450;DHT22;11392;57.390;-2.468;2023-08-06T01:08:33;10.20;99.90
22450;DHT22;11392;57.390;-2.468;2023-08-06T01:14:02;10.30;99.90
22450;DHT22;11392;57.390;-2.468;2023-08-06T01:16:33;10.30;99.90
22450;DHT22;11392;57.390;-2.468;2023-08-06T01:19:00;10.20;99.90
22450;DHT22;11392;57.390;-2.468;2023-08-06T01:21:27;10.20;99.90
22450;DHT22;11392;57.390;-2.468;2023-08-06T01:23:54;10.20;99.90
22450;DHT22;11392;57.390;-2.468;2023-08-06T01:26:42;10.20;99.90
22450;DHT22;11392;57.390;-2.468;2023-08-06T01:29:23;10.30;99.90
22450;DHT22;11392;57.390;-2.468;2023-08-06T01:31:53;10.30;99.90
22450;DHT22;11392;57.390;-2.468;2023-08-06T01:34:23;10.40;99.90
22450;DHT22;11392;57.390;-2.468;2023-08-06T01:36:51;10.30;99.90
22450;DHT22;11392;57.390;-2.468;2023-08-06T01:39:19;10.40;99.90
22450;DHT22;11392;57.390;-2.468;2023-08-06T01:41:48;10.40;99.90
22450;DHT22;11392;57.390;-2.468;2023-08-06T01:44:16;10.50;99.90
22450;DHT22;11392;57.390;-2.468;2023-08-06T01:46:43;10.40;99.90
22450;DHT22;11392;57.390;-2.468;2023-08-06T01:49:10;10.50;99.90
22450;DHT22;11392;57.390;-2.468;2023-08-06T01:51:37;10.50;99.90
22450;DHT22;11392;57.390;-2.468;2023-08-06T01:54:04;10.50;99.90
22450;DHT22;11392;57.390;-2.468;2023-08-06T01:56:31;10.50;99.90
22450;DHT22;11392;57.390;-2.468;2023-08-06T01:58:58;10.50;99.90
22450;DHT22;11392;57.390;-2.468;2023-08-06T02:01:27;10.50;99.90
22450;DHT22;11392;57.390;-2.468;2023-08-06T02:03:54;10.50;99.90
22450;DHT22;11392;57.390;-2.468;2023-08-06T02:06:21;10.50;99.90
22450;DHT22;11392;57.390;-2.468;2023-08-06T02:08:48;10.50;99.90
22450;DHT22;11392;57.390;-2.468;2023-08-06T02:11:15;10.50;99.90
22450;DHT22;11392;57.390;-2.468;2023-08-06T02:13:42;10.50;99.90
22450;DHT22;11392;57.390;-2.468;2023-08-06T02:16:09;10.50;99.90
22450;DHT22;11392;57.390;-2.468;2023-08-06T02:18:36;10.50;99.90
22450;DHT22;11392;57.390;-2.468;2023-08-06T02:21:03;10.50;99.90
22450;DHT22;11392;57.390;-2.468;2023-08-06T02:23:30;10.50;99.90
22450;DHT22;11392;57.390;-2.468;2023-08-06T02:26:01;10.50;99.90
22450;DHT22;11392;57.390;-2.468;2023-08-06T02:28:30;10.60;99.90
22450;DHT22;11392;57.390;-2.468;2023-08-06T02:30:57;10.60;99.90
22450;DHT22;11392;57.390;-2.468;2023-08-06T02:33:24;10.60;99.90
22450;DHT22;11392;57.390;-2.468;2023-08-06T02:35:58;10.70;99.90
22450;DHT22;11392;57.390;-2.468;2023-08-06T02:38:25;10.70;99.90
22450;DHT22;11392;57.390;-2.468;2023-08-06T02:40:52;10.60;99.90
22450;DHT22;11392;57.390;-2.468;2023-08-06T02:43:19;10.60;99.90
22450;DHT22;11392;57.390;-2.468;2023-08-06T02:45:46;10.60;99.90
22450;DHT22;11392;57.390;-2.468;2023-08-06T02:48:13;10.60;99.90
22450;DHT22;11392;57.390;-2.468;2023-08-06T02:50:40;10.60;99.90
22450;DHT22;11392;57.390;-2.468;2023-08-06T02:53:09;10.60;99.90
22450;DHT22;11392;57.390;-2.468;2023-08-06T02:55:36;10.50;99.90
22450;DHT22;11392;57.390;-2.468;2023-08-06T02:58:03;10.50;99.90
22450;DHT22;11392;57.390;-2.468;2023-08-06T03:00:30;10.50;99.90
22450;DHT22;11392;57.390;-2.468;2023-08-06T03:02:57;10.50;99.90
22450;DHT22;11392;57.390;-2.468;2023-08-06T03:05:24;10.40;99.90
22450;DHT22;11392;57.390;-2.468;2023-08-06T03:07:51;10.40;99.90
22450;DHT22;11392;57.390;-2.468;2023-08-06T03:10:18;10.40;99.90
22450;DHT22;11392;57.390;-2.468;2023-08-06T03:12:46;10.40;99.90
22450;DHT22;11392;57.390;-2.468;2023-08-06T03:15:13;10.40;99.90
22450;DHT22;11392;57.390;-2.468;2023-08-06T03:17:41;10.40;99.90
22450;DHT22;11392;57.390;-2.468;2023-08-06T03:20:08;10.40;99.90
22450;DHT22;11392;57.390;-2.468;2023-08-06T03:22:35;10.40;99.90
22450;DHT22;11392;57.390;-2.468;2023-08-06T03:25:03;10.40;99.90
22450;DHT22;11392;57.390;-2.468;2023-08-06T03:27:30;10.30;99.90
22450;DHT22;11392;57.390;-2.468;2023-08-06T03:29:57;10.30;99.90
22450;DHT22;11392;57.390;-2.468;2023-08-06T03:32:24;10.40;99.90
22450;DHT22;11392;57.390;-2.468;2023-08-06T03:34:51;10.40;99.90
22450;DHT22;11392;57.390;-2.468;2023-08-06T03:37:18;10.30;99.90
22450;DHT22;11392;57.390;-2.468;2023-08-06T03:39:45;10.30;99.90
22450;DHT22;11392;57.390;-2.468;2023-08-06T03:42:12;10.20;99.90
22450;DHT22;11392;57.390;-2.468;2023-08-06T03:44:38;10.20;99.90
22450;DHT22;11392;57.390;-2.468;2023-08-06T03:47:06;10.20;99.90
22450;DHT22;11392;57.390;-2.468;2023-08-06T03:49:33;10.20;99.90
22450;DHT22;11392;57.390;-2.468;2023-08-06T03:52:00;10.20;99.90
22450;DHT22;11392;57.390;-2.468;2023-08-06T03:54:27;10.10;99.90
22450;DHT22;11392;57.390;-2.468;2023-08-06T03:56:54;10.10;99.90
22450;DHT22;11392;57.390;-2.468;2023-08-06T03:59:21;10.20;99.90
22450;DHT22;11392;57.390;-2.468;2023-08-06T04:01:48;10.10;99.90
22450;DHT22;11392;57.390;-2.468;2023-08-06T04:04:15;10.10;99.90
22450;DHT22;11392;57.390;-2.468;2023-08-06T04:06:42;10.10;99.90
22450;DHT22;11392;57.390;-2.468;2023-08-06T04:09:09;10.20;99.90
22450;DHT22;11392;57.390;-2.468;2023-08-06T04:11:36;10.10;99.90
22450;DHT22;11392;57.390;-2.468;2023-08-06T04:14:03;10.10;99.90
22450;DHT22;11392;57.390;-2.468;2023-08-06T04:16:30;10.10;99.90
22450;DHT22;11392;57.390;-2.468;2023-08-06T04:18:57;10.10;99.90
22450;DHT22;11392;57.390;-2.468;2023-08-06T04:21:25;10.10;99.90
22450;DHT22;11392;57.390;-2.468;2023-08-06T04:23:51;10.10;99.90
22450;DHT22;11392;57.390;-2.468;2023-08-06T04:26:18;10.20;99.90
22450;DHT22;11392;57.390;-2.468;2023-08-06T04:28:45;10.10;99.90
22450;DHT22;11392;57.390;-2.468;2023-08-06T04:31:12;10.20;99.90
22450;DHT22;11392;57.390;-2.468;2023-08-06T04:33:39;10.20;99.90
22450;DHT22;11392;57.390;-2.468;2023-08-06T04:36:06;10.20;99.90
22450;DHT22;11392;57.390;-2.468;2023-08-06T04:38:34;10.20;99.90
22450;DHT22;11392;57.390;-2.468;2023-08-06T04:41:02;10.20;99.90
22450;DHT22;11392;57.390;-2.468;2023-08-06T04:43:30;10.20;99.90
22450;DHT22;11392;57.390;-2.468;2023-08-06T04:45:57;10.20;99.90
22450;DHT22;11392;57.390;-2.468;2023-08-06T04:48:24;10.20;99.90
22450;DHT22;11392;57.390;-2.468;2023-08-06T04:50:51;10.20;99.90
22450;DHT22;11392;57.390;-2.468;2023-08-06T04:53:18;10.20;99.90
22450;DHT22;11392;57.390;-2.468;2023-08-06T04:55:45;10.20;99.90
22450;DHT22;11392;57.390;-2.468;2023-08-06T04:58:13;10.20;99.90
22450;DHT22;11392;57.390;-2.468;2023-08-06T05:00:40;10.20;99.90
22450;DHT22;11392;57.390;-2.468;2023-08-06T05:03:07;10.10;99.90
22450;DHT22;11392;57.390;-2.468;2023-08-06T05:05:34;10.10;99.90
22450;DHT22;11392;57.390;-2.468;2023-08-06T05:08:01;10.10;99.90
22450;DHT22;11392;57.390;-2.468;2023-08-06T05:10:28;10.10;99.90
22450;DHT22;11392;57.390;-2.468;2023-08-06T05:12:55;10.20;99.90
22450;DHT22;11392;57.390;-2.468;2023-08-06T05:15:23;10.20;99.90
22450;DHT22;11392;57.390;-2.468;2023-08-06T05:17:52;10.20;99.90
22450;DHT22;11392;57.390;-2.468;2023-08-06T05:20:20;10.10;99.90
22450;DHT22;11392;57.390;-2.468;2023-08-06T05:22:47;10.20;99.90
22450;DHT22;11392;57.390;-2.468;2023-08-06T05:25:14;10.20;99.90
22450;DHT22;11392;57.390;-2.468;2023-08-06T05:27:41;10.20;99.90
22450;DHT22;11392;57.390;-2.468;2023-08-06T05:30:09;10.20;99.90
22450;DHT22;11392;57.390;-2.468;2023-08-06T05:32:37;10.20;99.90
22450;DHT22;11392;57.390;-2.468;2023-08-06T05:35:04;10.10;99.90
22450;DHT22;11392;57.390;-2.468;2023-08-06T05:37:31;10.10;99.90
22450;DHT22;11392;57.390;-2.468;2023-08-06T05:39:58;10.10;99.90
22450;DHT22;11392;57.390;-2.468;2023-08-06T05:42:25;10.10;99.90
22450;DHT22;11392;57.390;-2.468;2023-08-06T05:44:52;10.00;99.90
22450;DHT22;11392;57.390;-2.468;2023-08-06T05:47:19;10.00;99.90
22450;DHT22;11392;57.390;-2.468;2023-08-06T05:49:46;10.00;99.90
22450;DHT22;11392;57.390;-2.468;2023-08-06T05:52:13;10.00;99.90
22450;DHT22;11392;57.390;-2.468;2023-08-06T05:54:40;10.00;99.90
22450;DHT22;11392;57.390;-2.468;2023-08-06T05:57:07;10.00;99.90
22450;DHT22;11392;57.390;-2.468;2023-08-06T05:59:34;10.00;99.90
22450;DHT22;11392;57.390;-2.468;2023-08-06T06:02:01;10.00;99.90
22450;DHT22;11392;57.390;-2.468;2023-08-06T06:04:28;10.00;99.90
22450;DHT22;11392;57.390;-2.468;2023-08-06T06:06:55;10.00;99.90
22450;DHT22;11392;57.390;-2.468;2023-08-06T06:09:22;10.10;99.90
22450;DHT22;11392;57.390;-2.468;2023-08-06T06:11:49;10.10;99.90
22450;DHT22;11392;57.390;-2.468;2023-08-06T06:14:18;10.20;99.90
22450;DHT22;11392;57.390;-2.468;2023-08-06T06:16:45;10.30;99.90
22450;DHT22;11392;57.390;-2.468;2023-08-06T06:19:12;10.40;99.90
22450;DHT22;11392;57.390;-2.468;2023-08-06T06:21:40;10.50;99.90
22450;DHT22;11392;57.390;-2.468;2023-08-06T06:24:07;10.60;99.90
22450;DHT22;11392;57.390;-2.468;2023-08-06T06:26:34;10.70;99.90
22450;DHT22;11392;57.390;-2.468;2023-08-06T06:29:01;10.90;99.90
22450;DHT22;11392;57.390;-2.468;2023-08-06T06:31:29;11.00;99.90
22450;DHT22;11392;57.390;-2.468;2023-08-06T06:33:56;11.10;99.90
22450;DHT22;11392;57.390;-2.468;2023-08-06T06:36:23;11.30;99.90
22450;DHT22;11392;57.390;-2.468;2023-08-06T06:38:50;11.60;99.90
22450;DHT22;11392;57.390;-2.468;2023-08-06T06:41:17;11.80;99.90
22450;DHT22;11392;57.390;-2.468;2023-08-06T06:43:44;12.00;99.90
22450;DHT22;11392;57.390;-2.468;2023-08-06T06:46:11;12.20;99.90
22450;DHT22;11392;57.390;-2.468;2023-08-06T06:48:38;12.40;99.90
22450;DHT22;11392;57.390;-2.468;2023-08-06T06:51:05;12.70;99.90
22450;DHT22;11392;57.390;-2.468;2023-08-06T06:53:32;12.90;99.90
22450;DHT22;11392;57.390;-2.468;2023-08-06T06:56:04;13.10;99.90
22450;DHT22;11392;57.390;-2.468;2023-08-06T06:58:32;13.20;99.90
22450;DHT22;11392;57.390;-2.468;2023-08-06T07:00:59;13.40;99.90
22450;DHT22;11392;57.390;-2.468;2023-08-06T07:03:26;13.70;99.90
22450;DHT22;11392;57.390;-2.468;2023-08-06T07:05:57;13.90;99.90
22450;DHT22;11392;57.390;-2.468;2023-08-06T07:08:26;14.10;99.90
22450;DHT22;11392;57.390;-2.468;2023-08-06T07:11:06;14.30;99.90
22450;DHT22;11392;57.390;-2.468;2023-08-06T07:13:34;14.60;99.90
22450;DHT22;11392;57.390;-2.468;2023-08-06T07:16:01;14.80;99.90
22450;DHT22;11392;57.390;-2.468;2023-08-06T07:18:28;15.00;99.90
22450;DHT22;11392;57.390;-2.468;2023-08-06T07:20:55;15.20;99.90
22450;DHT22;11392;57.390;-2.468;2023-08-06T07:23:24;15.50;99.90
22450;DHT22;11392;57.390;-2.468;2023-08-06T07:25:52;15.60;99.90
22450;DHT22;11392;57.390;-2.468;2023-08-06T07:28:19;15.80;99.90
22450;DHT22;11392;57.390;-2.468;2023-08-06T07:30:46;15.90;99.90
22450;DHT22;11392;57.390;-2.468;2023-08-06T07:33:13;16.00;99.90
22450;DHT22;11392;57.390;-2.468;2023-08-06T07:35:40;16.20;99.90
22450;DHT22;11392;57.390;-2.468;2023-08-06T07:38:07;16.40;99.90
22450;DHT22;11392;57.390;-2.468;2023-08-06T07:40:36;16.60;99.90
22450;DHT22;11392;57.390;-2.468;2023-08-06T07:43:04;16.50;99.90
22450;DHT22;11392;57.390;-2.468;2023-08-06T07:45:35;16.20;99.90
22450;DHT22;11392;57.390;-2.468;2023-08-06T07:48:03;16.20;99.90
22450;DHT22;11392;57.390;-2.468;2023-08-06T07:50:30;16.00;99.90
22450;DHT22;11392;57.390;-2.468;2023-08-06T07:52:57;15.70;99.90
22450;DHT22;11392;57.390;-2.468;2023-08-06T07:55:25;15.60;99.90
22450;DHT22;11392;57.390;-2.468;2023-08-06T07:57:53;15.70;99.90
22450;DHT22;11392;57.390;-2.468;2023-08-06T08:00:20;15.80;99.90
22450;DHT22;11392;57.390;-2.468;2023-08-06T08:02:47;15.80;99.90
22450;DHT22;11392;57.390;-2.468;2023-08-06T08:05:14;15.90;99.90
22450;DHT22;11392;57.390;-2.468;2023-08-06T08:07:41;15.50;99.90
22450;DHT22;11392;57.390;-2.468;2023-08-06T08:10:09;15.40;99.90
22450;DHT22;11392;57.390;-2.468;2023-08-06T08:12:36;15.30;99.90
22450;DHT22;11392;57.390;-2.468;2023-08-06T08:15:03;15.30;99.90
22450;DHT22;11392;57.390;-2.468;2023-08-06T08:17:30;15.20;99.90
22450;DHT22;11392;57.390;-2.468;2023-08-06T08:19:57;15.10;99.90
22450;DHT22;11392;57.390;-2.468;2023-08-06T08:22:24;14.90;99.90
22450;DHT22;11392;57.390;-2.468;2023-08-06T08:24:51;14.80;99.90
22450;DHT22;11392;57.390;-2.468;2023-08-06T08:27:18;14.80;99.90
22450;DHT22;11392;57.390;-2.468;2023-08-06T08:29:45;14.70;99.90
22450;DHT22;11392;57.390;-2.468;2023-08-06T08:32:12;14.60;99.90
22450;DHT22;11392;57.390;-2.468;2023-08-06T08:34:39;14.60;99.90
22450;DHT22;11392;57.390;-2.468;2023-08-06T08:37:06;14.60;99.90
22450;DHT22;11392;57.390;-2.468;2023-08-06T08:39:33;14.60;99.90
22450;DHT22;11392;57.390;-2.468;2023-08-06T08:42:01;14.50;99.90
22450;DHT22;11392;57.390;-2.468;2023-08-06T08:44:29;14.50;99.90
22450;DHT22;11392;57.390;-2.468;2023-08-06T08:46:59;14.40;99.90
22450;DHT22;11392;57.390;-2.468;2023-08-06T08:49:27;14.30;99.90
22450;DHT22;11392;57.390;-2.468;2023-08-06T08:51:56;14.30;99.90
22450;DHT22;11392;57.390;-2.468;2023-08-06T08:54:24;14.20;99.90
22450;DHT22;11392;57.390;-2.468;2023-08-06T08:56:52;14.20;99.90
22450;DHT22;11392;57.390;-2.468;2023-08-06T08:59:19;14.30;99.90
22450;DHT22;11392;57.390;-2.468;2023-08-06T09:01:48;14.40;99.90
22450;DHT22;11392;57.390;-2.468;2023-08-06T09:04:19;14.50;99.90
22450;DHT22;11392;57.390;-2.468;2023-08-06T09:06:50;14.60;99.90
22450;DHT22;11392;57.390;-2.468;2023-08-06T09:09:25;14.60;99.90
22450;DHT22;11392;57.390;-2.468;2023-08-06T09:11:57;14.60;99.90
22450;DHT22;11392;57.390;-2.468;2023-08-06T09:14:25;14.50;99.90
22450;DHT22;11392;57.390;-2.468;2023-08-06T09:16:52;14.50;99.90
22450;DHT22;11392;57.390;-2.468;2023-08-06T09:19:19;14.40;99.90
22450;DHT22;11392;57.390;-2.468;2023-08-06T09:21:46;14.30;99.90
22450;DHT22;11392;57.390;-2.468;2023-08-06T09:24:16;14.20;99.90
22450;DHT22;11392;57.390;-2.468;2023-08-06T09:26:46;14.30;99.90
22450;DHT22;11392;57.390;-2.468;2023-08-06T09:29:13;14.10;99.90
22450;DHT22;11392;57.390;-2.468;2023-08-06T09:31:42;14.00;99.90
22450;DHT22;11392;57.390;-2.468;2023-08-06T09:34:17;13.90;99.90
22450;DHT22;11392;57.390;-2.468;2023-08-06T09:36:52;13.80;99.90
22450;DHT22;11392;57.390;-2.468;2023-08-06T09:39:21;13.80;99.90
22450;DHT22;11392;57.390;-2.468;2023-08-06T09:41:56;13.70;99.90
22450;DHT22;11392;57.390;-2.468;2023-08-06T09:44:25;13.70;99.90
22450;DHT22;11392;57.390;-2.468;2023-08-06T09:46:54;13.70;99.90
22450;DHT22;11392;57.390;-2.468;2023-08-06T09:49:28;13.60;99.90
22450;DHT22;11392;57.390;-2.468;2023-08-06T09:52:14;13.70;99.90
22450;DHT22;11392;57.390;-2.468;2023-08-06T09:54:44;13.70;99.90
22450;DHT22;11392;57.390;-2.468;2023-08-06T09:57:13;13.90;99.90
22450;DHT22;11392;57.390;-2.468;2023-08-06T09:59:42;13.80;99.90
22450;DHT22;11392;57.390;-2.468;2023-08-06T10:02:13;13.90;99.90
22450;DHT22;11392;57.390;-2.468;2023-08-06T10:04:44;14.00;99.90
22450;DHT22;11392;57.390;-2.468;2023-08-06T10:07:21;14.10;99.90
22450;DHT22;11392;57.390;-2.468;2023-08-06T10:09:49;14.20;99.90
22450;DHT22;11392;57.390;-2.468;2023-08-06T10:12:17;14.30;99.90
22450;DHT22;11392;57.390;-2.468;2023-08-06T10:14:46;14.50;99.90
22450;DHT22;11392;57.390;-2.468;2023-08-06T10:17:16;14.50;99.90
22450;DHT22;11392;57.390;-2.468;2023-08-06T10:19:44;14.70;99.90
22450;DHT22;11392;57.390;-2.468;2023-08-06T10:22:16;14.90;99.90
22450;DHT22;11392;57.390;-2.468;2023-08-06T10:24:59;15.20;99.90
22450;DHT22;11392;57.390;-2.468;2023-08-06T10:30:25;16.10;99.90
22450;DHT22;11392;57.390;-2.468;2023-08-06T10:32:54;16.40;99.90
22450;DHT22;11392;57.390;-2.468;2023-08-06T10:35:31;16.50;99.90
22450;DHT22;11392;57.390;-2.468;2023-08-06T10:38:19;16.60;99.90
22450;DHT22;11392;57.390;-2.468;2023-08-06T10:40:52;16.60;99.90
22450;DHT22;11392;57.390;-2.468;2023-08-06T10:43:34;16.50;99.90
22450;DHT22;11392;57.390;-2.468;2023-08-06T10:46:03;16.30;99.90
22450;DHT22;11392;57.390;-2.468;2023-08-06T10:48:36;16.00;99.90
22450;DHT22;11392;57.390;-2.468;2023-08-06T10:51:08;15.80;99.90
22450;DHT22;11392;57.390;-2.468;2023-08-06T10:53:36;15.70;99.90
22450;DHT22;11392;57.390;-2.468;2023-08-06T10:58:41;15.60;99.90
22450;DHT22;11392;57.390;-2.468;2023-08-06T11:01:09;15.50;99.90
22450;DHT22;11392;57.390;-2.468;2023-08-06T11:03:37;15.50;99.90
22450;DHT22;11392;57.390;-2.468;2023-08-06T11:06:07;15.40;99.90
22450;DHT22;11392;57.390;-2.468;2023-08-06T11:08:36;15.30;99.90
22450;DHT22;11392;57.390;-2.468;2023-08-06T11:11:13;15.20;99.90
22450;DHT22;11392;57.390;-2.468;2023-08-06T11:13:42;15.30;99.90
22450;DHT22;11392;57.390;-2.468;2023-08-06T11:16:10;15.30;99.90
22450;DHT22;11392;57.390;-2.468;2023-08-06T11:18:37;15.20;99.90
22450;DHT22;11392;57.390;-2.468;2023-08-06T11:21:04;15.20;99.90
22450;DHT22;11392;57.390;-2.468;2023-08-06T11:23:31;15.20;99.90
22450;DHT22;11392;57.390;-2.468;2023-08-06T11:25:58;15.30;99.90
22450;DHT22;11392;57.390;-2.468;2023-08-06T11:28:26;15.40;99.90
22450;DHT22;11392;57.390;-2.468;2023-08-06T11:30:53;15.50;99.90
22450;DHT22;11392;57.390;-2.468;2023-08-06T11:33:25;15.50;99.90
22450;DHT22;11392;57.390;-2.468;2023-08-06T11:35:55;15.50;99.90
22450;DHT22;11392;57.390;-2.468;2023-08-06T11:38:25;15.60;99.90
22450;DHT22;11392;57.390;-2.468;2023-08-06T11:40:54;15.70;99.90
22450;DHT22;11392;57.390;-2.468;2023-08-06T11:43:21;15.70;99.90
22450;DHT22;11392;57.390;-2.468;2023-08-06T11:45:50;15.80;99.90
22450;DHT22;11392;57.390;-2.468;2023-08-06T11:48:17;16.20;99.90
22450;DHT22;11392;57.390;-2.468;2023-08-06T11:50:45;16.70;99.90
22450;DHT22;11392;57.390;-2.468;2023-08-06T11:53:13;17.30;99.90
22450;DHT22;11392;57.390;-2.468;2023-08-06T11:55:41;17.50;99.90
22450;DHT22;11392;57.390;-2.468;2023-08-06T11:58:10;17.60;99.90
22450;DHT22;11392;57.390;-2.468;2023-08-06T12:00:40;17.60;99.90
22450;DHT22;11392;57.390;-2.468;2023-08-06T12:03:07;17.20;99.90
22450;DHT22;11392;57.390;-2.468;2023-08-06T12:05:34;17.00;99.90
22450;DHT22;11392;57.390;-2.468;2023-08-06T12:08:02;16.90;99.90
22450;DHT22;11392;57.390;-2.468;2023-08-06T12:10:31;16.80;99.90
22450;DHT22;11392;57.390;-2.468;2023-08-06T12:12:59;17.20;99.90
22450;DHT22;11392;57.390;-2.468;2023-08-06T12:15:26;17.80;99.90
22450;DHT22;11392;57.390;-2.468;2023-08-06T12:17:53;17.90;99.90
22450;DHT22;11392;57.390;-2.468;2023-08-06T12:20:20;18.20;99.90
22450;DHT22;11392;57.390;-2.468;2023-08-06T12:22:47;18.80;99.90
22450;DHT22;11392;57.390;-2.468;2023-08-06T12:25:14;19.30;99.90
22450;DHT22;11392;57.390;-2.468;2023-08-06T12:27:43;19.70;99.90
22450;DHT22;11392;57.390;-2.468;2023-08-06T12:30:12;20.00;99.90
22450;DHT22;11392;57.390;-2.468;2023-08-06T12:32:39;20.50;99.90
22450;DHT22;11392;57.390;-2.468;2023-08-06T12:35:07;21.00;99.90
22450;DHT22;11392;57.390;-2.468;2023-08-06T12:37:35;21.20;99.90
22450;DHT22;11392;57.390;-2.468;2023-08-06T12:40:02;21.30;99.90
22450;DHT22;11392;57.390;-2.468;2023-08-06T12:42:53;20.90;99.90
22450;DHT22;11392;57.390;-2.468;2023-08-06T12:45:20;21.30;99.90
22450;DHT22;11392;57.390;-2.468;2023-08-06T12:47:48;21.70;99.90
22450;DHT22;11392;57.390;-2.468;2023-08-06T12:50:16;22.10;99.90
22450;DHT22;11392;57.390;-2.468;2023-08-06T12:52:44;22.20;99.90
22450;DHT22;11392;57.390;-2.468;2023-08-06T12:55:11;22.00;99.90
22450;DHT22;11392;57.390;-2.468;2023-08-06T12:57:38;21.80;99.90
22450;DHT22;11392;57.390;-2.468;2023-08-06T13:00:25;21.70;99.90
22450;DHT22;11392;57.390;-2.468;2023-08-06T13:02:52;21.30;99.90
22450;DHT22;11392;57.390;-2.468;2023-08-06T13:05:19;21.20;99.90
22450;DHT22;11392;57.390;-2.468;2023-08-06T13:07:47;21.30;99.90
22450;DHT22;11392;57.390;-2.468;2023-08-06T13:10:14;21.60;99.90
22450;DHT22;11392;57.390;-2.468;2023-08-06T13:12:41;21.90;99.90
22450;DHT22;11392;57.390;-2.468;2023-08-06T13:15:08;21.80;99.90
22450;DHT22;11392;57.390;-2.468;2023-08-06T13:17:36;21.90;99.90
22450;DHT22;11392;57.390;-2.468;2023-08-06T13:20:04;22.20;99.90
22450;DHT22;11392;57.390;-2.468;2023-08-06T13:22:31;22.20;99.90
22450;DHT22;11392;57.390;-2.468;2023-08-06T13:24:58;22.60;99.90
22450;DHT22;11392;57.390;-2.468;2023-08-06T13:27:25;22.90;99.90
22450;DHT22;11392;57.390;-2.468;2023-08-06T13:29:52;23.10;99.90
22450;DHT22;11392;57.390;-2.468;2023-08-06T13:32:19;23.50;99.90
22450;DHT22;11392;57.390;-2.468;2023-08-06T13:34:46;23.50;99.90
22450;DHT22;11392;57.390;-2.468;2023-08-06T13:37:13;23.50;99.90
22450;DHT22;11392;57.390;-2.468;2023-08-06T13:39:40;23.60;99.90
22450;DHT22;11392;57.390;-2.468;2023-08-06T13:42:07;23.60;99.90
22450;DHT22;11392;57.390;-2.468;2023-08-06T13:44:34;23.50;99.90
22450;DHT22;11392;57.390;-2.468;2023-08-06T13:47:02;23.40;99.90
22450;DHT22;11392;57.390;-2.468;2023-08-06T13:49:29;23.50;99.90
22450;DHT22;11392;57.390;-2.468;2023-08-06T13:51:56;23.60;99.90
22450;DHT22;11392;57.390;-2.468;2023-08-06T13:54:43;23.50;99.90
22450;DHT22;11392;57.390;-2.468;2023-08-06T13:57:12;23.60;99.90
22450;DHT22;11392;57.390;-2.468;2023-08-06T13:59:39;23.20;99.90
22450;DHT22;11392;57.390;-2.468;2023-08-06T14:02:06;23.20;99.90
22450;DHT22;11392;57.390;-2.468;2023-08-06T14:04:33;23.10;99.90
22450;DHT22;11392;57.390;-2.468;2023-08-06T14:07:00;23.00;99.90
22450;DHT22;11392;57.390;-2.468;2023-08-06T14:09:27;22.70;99.90
22450;DHT22;11392;57.390;-2.468;2023-08-06T14:11:54;22.20;99.90
22450;DHT22;11392;57.390;-2.468;2023-08-06T14:14:21;22.10;99.90
22450;DHT22;11392;57.390;-2.468;2023-08-06T14:16:53;22.30;99.90
22450;DHT22;11392;57.390;-2.468;2023-08-06T14:19:22;22.30;99.90
22450;DHT22;11392;57.390;-2.468;2023-08-06T14:21:49;22.20;99.90
22450;DHT22;11392;57.390;-2.468;2023-08-06T14:24:18;22.10;99.90
22450;DHT22;11392;57.390;-2.468;2023-08-06T14:26:45;22.40;99.90
22450;DHT22;11392;57.390;-2.468;2023-08-06T14:29:12;22.30;99.90
22450;DHT22;11392;57.390;-2.468;2023-08-06T14:31:40;22.30;99.90
22450;DHT22;11392;57.390;-2.468;2023-08-06T14:34:07;22.70;99.90
22450;DHT22;11392;57.390;-2.468;2023-08-06T14:36:34;22.80;99.90
22450;DHT22;11392;57.390;-2.468;2023-08-06T14:39:01;22.70;99.90
22450;DHT22;11392;57.390;-2.468;2023-08-06T14:41:29;22.00;99.90
22450;DHT22;11392;57.390;-2.468;2023-08-06T14:43:56;21.80;99.90
22450;DHT22;11392;57.390;-2.468;2023-08-06T14:46:23;21.60;99.90
22450;DHT22;11392;57.390;-2.468;2023-08-06T14:48:50;21.50;99.90
22450;DHT22;11392;57.390;-2.468;2023-08-06T14:51:17;21.60;99.90
22450;DHT22;11392;57.390;-2.468;2023-08-06T14:53:47;21.70;99.90
22450;DHT22;11392;57.390;-2.468;2023-08-06T14:56:14;22.00;99.90
22450;DHT22;11392;57.390;-2.468;2023-08-06T14:58:42;21.70;99.90
22450;DHT22;11392;57.390;-2.468;2023-08-06T15:01:09;21.40;99.90
22450;DHT22;11392;57.390;-2.468;2023-08-06T15:03:36;21.40;99.90
22450;DHT22;11392;57.390;-2.468;2023-08-06T15:06:03;21.10;99.90
22450;DHT22;11392;57.390;-2.468;2023-08-06T15:08:30;21.30;99.90
22450;DHT22;11392;57.390;-2.468;2023-08-06T15:10:57;21.30;99.90
22450;DHT22;11392;57.390;-2.468;2023-08-06T15:13:25;21.60;99.90
22450;DHT22;11392;57.390;-2.468;2023-08-06T15:15:52;22.00;99.90
22450;DHT22;11392;57.390;-2.468;2023-08-06T15:18:19;22.20;99.90
22450;DHT22;11392;57.390;-2.468;2023-08-06T15:20:46;22.60;99.90
22450;DHT22;11392;57.390;-2.468;2023-08-06T15:23:14;22.40;99.90
22450;DHT22;11392;57.390;-2.468;2023-08-06T15:25:41;22.30;99.90
22450;DHT22;11392;57.390;-2.468;2023-08-06T15:28:08;22.10;99.90
22450;DHT22;11392;57.390;-2.468;2023-08-06T15:30:35;22.10;99.90
22450;DHT22;11392;57.390;-2.468;2023-08-06T15:33:02;22.20;99.90